sensor_id;sensor_type;location;lat;lon;timestamp;P1;durP1;ratioP1;P2;durP2;ratioP2
67798;SDS011;54596;43.216;27.904;2022-11-20T00:01:46;20.17;;;6.35;;
67798;SDS011;54596;43.216;27.904;2022-11-20T00:04:12;17.75;;;5.85;;
67798;SDS011;54596;43.216;27.904;2022-11-20T00:06:37;22.15;;;6.57;;
67798;SDS011;54596;43.216;27.904;2022-11-20T00:09:03;25.10;;;6.82;;
67798;SDS011;54596;43.216;27.904;2022-11-20T00:11:30;19.88;;;7.10;;
67798;SDS011;54596;43.216;27.904;2022-11-20T00:13:57;19.73;;;7.40;;
67798;SDS011;54596;43.216;27.904;2022-11-20T00:16:25;18.77;;;6.25;;
67798;SDS011;54596;43.216;27.904;2022-11-20T00:18:52;25.10;;;7.25;;
67798;SDS011;54596;43.216;27.904;2022-11-20T00:21:19;18.63;;;6.88;;
67798;SDS011;54596;43.216;27.904;2022-11-20T00:23:45;21.75;;;7.80;;
67798;SDS011;54596;43.216;27.904;2022-11-20T00:26:11;18.75;;;7.18;;
67798;SDS011;54596;43.216;27.904;2022-11-20T00:28:40;20.17;;;6.57;;
67798;SDS011;54596;43.216;27.904;2022-11-20T00:31:07;27.52;;;7.10;;
67798;SDS011;54596;43.216;27.904;2022-11-20T00:33:34;22.15;;;6.28;;
67798;SDS011;54596;43.216;27.904;2022-11-20T00:36:01;21.55;;;6.90;;
67798;SDS011;54596;43.216;27.904;2022-11-20T00:38:27;26.55;;;7.25;;
67798;SDS011;54596;43.216;27.904;2022-11-20T00:40:56;21.25;;;6.80;;
67798;SDS011;54596;43.216;27.904;2022-11-20T00:43:23;20.48;;;7.18;;
67798;SDS011;54596;43.216;27.904;2022-11-20T00:45:48;23.77;;;7.28;;
67798;SDS011;54596;43.216;27.904;2022-11-20T00:48:14;22.67;;;7.22;;
67798;SDS011;54596;43.216;27.904;2022-11-20T00:50:40;24.83;;;7.07;;
67798;SDS011;54596;43.216;27.904;2022-11-20T00:53:06;19.85;;;6.65;;
67798;SDS011;54596;43.216;27.904;2022-11-20T00:55:31;23.77;;;6.82;;
67798;SDS011;54596;43.216;27.904;2022-11-20T00:57:57;23.83;;;7.68;;
67798;SDS011;54596;43.216;27.904;2022-11-20T01:00:22;24.85;;;7.95;;
67798;SDS011;54596;43.216;27.904;2022-11-20T01:02:48;23.48;;;6.80;;
67798;SDS011;54596;43.216;27.904;2022-11-20T01:05:13;23.48;;;7.68;;
67798;SDS011;54596;43.216;27.904;2022-11-20T01:07:39;23.80;;;7.28;;
67798;SDS011;54596;43.216;27.904;2022-11-20T01:10:04;22.00;;;6.60;;
67798;SDS011;54596;43.216;27.904;2022-11-20T01:12:30;20.00;;;6.78;;
67798;SDS011;54596;43.216;27.904;2022-11-20T01:14:56;19.23;;;6.55;;
67798;SDS011;54596;43.216;27.904;2022-11-20T01:17:22;18.35;;;6.40;;
67798;SDS011;54596;43.216;27.904;2022-11-20T01:19:50;16.35;;;6.13;;
67798;SDS011;54596;43.216;27.904;2022-11-20T01:22:16;18.77;;;6.63;;
67798;SDS011;54596;43.216;27.904;2022-11-20T01:24:41;21.00;;;6.13;;
67798;SDS011;54596;43.216;27.904;2022-11-20T01:27:07;19.45;;;6.25;;
67798;SDS011;54596;43.216;27.904;2022-11-20T01:29:32;21.08;;;6.50;;
67798;SDS011;54596;43.216;27.904;2022-11-20T01:31:58;20.77;;;6.35;;
67798;SDS011;54596;43.216;27.904;2022-11-20T01:34:23;19.20;;;6.80;;
67798;SDS011;54596;43.216;27.904;2022-11-20T01:36:50;17.77;;;6.35;;
67798;SDS011;54596;43.216;27.904;2022-11-20T01:39:20;21.05;;;6.13;;
67798;SDS011;54596;43.216;27.904;2022-11-20T01:41:48;19.00;;;6.95;;
67798;SDS011;54596;43.216;27.904;2022-11-20T01:44:47;20.45;;;6.45;;
67798;SDS011;54596;43.216;27.904;2022-11-20T01:52:42;21.13;;;5.53;;
67798;SDS011;54596;43.216;27.904;2022-11-20T01:55:13;21.38;;;6.00;;
67798;SDS011;54596;43.216;27.904;2022-11-20T01:57:44;20.73;;;6.00;;
67798;SDS011;54596;43.216;27.904;2022-11-20T02:00:12;22.13;;;5.88;;
67798;SDS011;54596;43.216;27.904;2022-11-20T02:02:41;18.13;;;5.47;;
67798;SDS011;54596;43.216;27.904;2022-11-20T02:08:02;18.52;;;5.38;;
67798;SDS011;54596;43.216;27.904;2022-11-20T02:10:29;18.67;;;5.40;;
67798;SDS011;54596;43.216;27.904;2022-11-20T02:12:54;19.88;;;5.85;;
67798;SDS011;54596;43.216;27.904;2022-11-20T02:15:39;17.85;;;5.70;;
67798;SDS011;54596;43.216;27.904;2022-11-20T02:18:05;20.48;;;5.88;;
67798;SDS011;54596;43.216;27.904;2022-11-20T02:20:32;17.80;;;5.93;;
67798;SDS011;54596;43.216;27.904;2022-11-20T02:22:59;18.67;;;5.47;;
67798;SDS011;54596;43.216;27.904;2022-11-20T02:25:34;14.63;;;5.57;;
67798;SDS011;54596;43.216;27.904;2022-11-20T02:28:02;23.45;;;5.88;;
67798;SDS011;54596;43.216;27.904;2022-11-20T02:30:28;20.42;;;6.10;;
67798;SDS011;54596;43.216;27.904;2022-11-20T02:32:53;17.63;;;6.40;;
67798;SDS011;54596;43.216;27.904;2022-11-20T02:37:44;24.73;;;7.10;;
67798;SDS011;54596;43.216;27.904;2022-11-20T02:40:13;20.27;;;6.40;;
67798;SDS011;54596;43.216;27.904;2022-11-20T02:42:39;22.17;;;6.85;;
67798;SDS011;54596;43.216;27.904;2022-11-20T02:45:05;21.55;;;6.70;;
67798;SDS011;54596;43.216;27.904;2022-11-20T02:47:31;19.33;;;5.65;;
67798;SDS011;54596;43.216;27.904;2022-11-20T02:49:56;21.13;;;6.30;;
67798;SDS011;54596;43.216;27.904;2022-11-20T02:52:22;18.77;;;6.07;;
67798;SDS011;54596;43.216;27.904;2022-11-20T02:54:48;21.50;;;5.63;;
67798;SDS011;54596;43.216;27.904;2022-11-20T02:57:13;18.77;;;5.43;;
67798;SDS011;54596;43.216;27.904;2022-11-20T02:59:39;20.40;;;5.72;;
67798;SDS011;54596;43.216;27.904;2022-11-20T03:02:04;19.63;;;5.95;;
67798;SDS011;54596;43.216;27.904;2022-11-20T03:04:30;19.90;;;5.70;;
67798;SDS011;54596;43.216;27.904;2022-11-20T03:06:55;22.17;;;6.25;;
67798;SDS011;54596;43.216;27.904;2022-11-20T03:09:21;22.88;;;6.18;;
67798;SDS011;54596;43.216;27.904;2022-11-20T03:11:46;18.70;;;5.70;;
67798;SDS011;54596;43.216;27.904;2022-11-20T03:14:12;17.23;;;5.30;;
67798;SDS011;54596;43.216;27.904;2022-11-20T03:16:38;21.75;;;6.03;;
67798;SDS011;54596;43.216;27.904;2022-11-20T03:19:03;20.52;;;6.50;;
67798;SDS011;54596;43.216;27.904;2022-11-20T03:21:29;23.33;;;6.53;;
67798;SDS011;54596;43.216;27.904;2022-11-20T03:23:55;22.25;;;6.68;;
67798;SDS011;54596;43.216;27.904;2022-11-20T03:26:21;20.15;;;6.55;;
67798;SDS011;54596;43.216;27.904;2022-11-20T03:28:49;20.45;;;6.60;;
67798;SDS011;54596;43.216;27.904;2022-11-20T03:31:17;18.80;;;6.20;;
67798;SDS011;54596;43.216;27.904;2022-11-20T03:33:44;16.50;;;6.43;;
67798;SDS011;54596;43.216;27.904;2022-11-20T03:36:11;18.98;;;6.38;;
67798;SDS011;54596;43.216;27.904;2022-11-20T03:38:38;21.00;;;6.30;;
67798;SDS011;54596;43.216;27.904;2022-11-20T03:41:05;21.02;;;6.32;;
67798;SDS011;54596;43.216;27.904;2022-11-20T03:43:32;21.30;;;6.82;;
67798;SDS011;54596;43.216;27.904;2022-11-20T03:45:58;19.75;;;5.80;;
67798;SDS011;54596;43.216;27.904;2022-11-20T03:48:23;17.20;;;6.30;;
67798;SDS011;54596;43.216;27.904;2022-11-20T03:50:50;21.17;;;6.30;;
67798;SDS011;54596;43.216;27.904;2022-11-20T03:53:16;16.98;;;5.65;;
67798;SDS011;54596;43.216;27.904;2022-11-20T03:55:42;18.58;;;5.95;;
67798;SDS011;54596;43.216;27.904;2022-11-20T03:58:08;18.38;;;5.63;;
67798;SDS011;54596;43.216;27.904;2022-11-20T04:00:34;19.50;;;5.65;;
67798;SDS011;54596;43.216;27.904;2022-11-20T04:03:00;16.92;;;5.25;;
67798;SDS011;54596;43.216;27.904;2022-11-20T04:05:26;17.92;;;5.18;;
67798;SDS011;54596;43.216;27.904;2022-11-20T04:07:52;21.73;;;5.55;;
67798;SDS011;54596;43.216;27.904;2022-11-20T04:10:18;21.27;;;6.18;;
67798;SDS011;54596;43.216;27.904;2022-11-20T04:12:43;19.88;;;5.88;;
67798;SDS011;54596;43.216;27.904;2022-11-20T04:15:09;16.88;;;5.85;;
67798;SDS011;54596;43.216;27.904;2022-11-20T04:17:34;19.63;;;5.80;;
67798;SDS011;54596;43.216;27.904;2022-11-20T04:20:00;16.60;;;5.35;;
67798;SDS011;54596;43.216;27.904;2022-11-20T04:22:26;21.90;;;6.47;;
67798;SDS011;54596;43.216;27.904;2022-11-20T04:24:51;17.83;;;5.60;;
67798;SDS011;54596;43.216;27.904;2022-11-20T04:27:17;17.70;;;4.75;;
67798;SDS011;54596;43.216;27.904;2022-11-20T04:29:42;17.42;;;5.30;;
67798;SDS011;54596;43.216;27.904;2022-11-20T04:32:08;16.60;;;4.55;;
67798;SDS011;54596;43.216;27.904;2022-11-20T04:34:33;17.83;;;4.57;;
67798;SDS011;54596;43.216;27.904;2022-11-20T04:37:00;16.45;;;5.40;;
67798;SDS011;54596;43.216;27.904;2022-11-20T04:39:25;19.30;;;5.20;;
67798;SDS011;54596;43.216;27.904;2022-11-20T04:41:51;18.45;;;5.07;;
67798;SDS011;54596;43.216;27.904;2022-11-20T04:44:35;17.77;;;5.40;;
67798;SDS011;54596;43.216;27.904;2022-11-20T04:47:00;16.70;;;4.68;;
67798;SDS011;54596;43.216;27.904;2022-11-20T04:49:26;20.08;;;5.07;;
67798;SDS011;54596;43.216;27.904;2022-11-20T04:51:54;15.52;;;4.30;;
67798;SDS011;54596;43.216;27.904;2022-11-20T04:54:20;18.40;;;4.53;;
67798;SDS011;54596;43.216;27.904;2022-11-20T04:56:49;16.00;;;3.95;;
67798;SDS011;54596;43.216;27.904;2022-11-20T04:59:15;16.90;;;3.97;;
67798;SDS011;54596;43.216;27.904;2022-11-20T05:01:41;19.20;;;4.60;;
67798;SDS011;54596;43.216;27.904;2022-11-20T05:04:06;15.57;;;4.28;;
67798;SDS011;54596;43.216;27.904;2022-11-20T05:06:32;18.45;;;4.18;;
67798;SDS011;54596;43.216;27.904;2022-11-20T05:08:58;20.00;;;4.68;;
67798;SDS011;54596;43.216;27.904;2022-11-20T05:11:24;16.38;;;4.03;;
67798;SDS011;54596;43.216;27.904;2022-11-20T05:13:50;14.02;;;3.83;;
67798;SDS011;54596;43.216;27.904;2022-11-20T05:16:20;20.92;;;4.47;;
67798;SDS011;54596;43.216;27.904;2022-11-20T05:18:47;18.30;;;4.53;;
67798;SDS011;54596;43.216;27.904;2022-11-20T05:21:13;14.68;;;4.13;;
67798;SDS011;54596;43.216;27.904;2022-11-20T05:23:39;16.35;;;4.10;;
67798;SDS011;54596;43.216;27.904;2022-11-20T05:26:06;19.83;;;4.35;;
67798;SDS011;54596;43.216;27.904;2022-11-20T05:28:33;20.10;;;4.65;;
67798;SDS011;54596;43.216;27.904;2022-11-20T05:31:11;18.42;;;4.80;;
67798;SDS011;54596;43.216;27.904;2022-11-20T05:33:42;15.40;;;4.07;;
67798;SDS011;54596;43.216;27.904;2022-11-20T05:36:09;16.05;;;4.22;;
67798;SDS011;54596;43.216;27.904;2022-11-20T05:38:35;19.00;;;4.63;;
67798;SDS011;54596;43.216;27.904;2022-11-20T05:41:07;19.13;;;5.30;;
67798;SDS011;54596;43.216;27.904;2022-11-20T05:43:38;17.65;;;4.80;;
67798;SDS011;54596;43.216;27.904;2022-11-20T05:46:05;20.65;;;4.03;;
67798;SDS011;54596;43.216;27.904;2022-11-20T05:48:33;15.77;;;4.68;;
67798;SDS011;54596;43.216;27.904;2022-11-20T05:50:59;20.95;;;4.80;;
67798;SDS011;54596;43.216;27.904;2022-11-20T05:53:26;17.52;;;5.28;;
67798;SDS011;54596;43.216;27.904;2022-11-20T05:58:24;16.77;;;4.40;;
67798;SDS011;54596;43.216;27.904;2022-11-20T06:00:50;19.10;;;4.90;;
67798;SDS011;54596;43.216;27.904;2022-11-20T06:03:15;18.05;;;4.47;;
67798;SDS011;54596;43.216;27.904;2022-11-20T06:05:41;24.38;;;5.00;;
67798;SDS011;54596;43.216;27.904;2022-11-20T06:08:06;19.27;;;4.85;;
67798;SDS011;54596;43.216;27.904;2022-11-20T06:10:32;15.32;;;4.40;;
67798;SDS011;54596;43.216;27.904;2022-11-20T06:12:57;24.13;;;4.63;;
67798;SDS011;54596;43.216;27.904;2022-11-20T06:15:23;18.80;;;4.90;;
67798;SDS011;54596;43.216;27.904;2022-11-20T06:17:51;18.98;;;4.68;;
67798;SDS011;54596;43.216;27.904;2022-11-20T06:20:18;21.60;;;5.40;;
67798;SDS011;54596;43.216;27.904;2022-11-20T06:22:44;17.10;;;4.72;;
67798;SDS011;54596;43.216;27.904;2022-11-20T06:25:09;20.10;;;4.97;;
67798;SDS011;54596;43.216;27.904;2022-11-20T06:27:35;20.23;;;4.50;;
67798;SDS011;54596;43.216;27.904;2022-11-20T06:30:00;23.65;;;4.90;;
67798;SDS011;54596;43.216;27.904;2022-11-20T06:32:25;21.17;;;5.03;;
67798;SDS011;54596;43.216;27.904;2022-11-20T06:34:51;18.98;;;5.05;;
67798;SDS011;54596;43.216;27.904;2022-11-20T06:37:16;18.88;;;4.90;;
67798;SDS011;54596;43.216;27.904;2022-11-20T06:39:42;19.58;;;5.13;;
67798;SDS011;54596;43.216;27.904;2022-11-20T06:42:07;19.73;;;4.38;;
67798;SDS011;54596;43.216;27.904;2022-11-20T06:44:33;23.35;;;4.80;;
67798;SDS011;54596;43.216;27.904;2022-11-20T06:46:58;17.95;;;4.45;;
67798;SDS011;54596;43.216;27.904;2022-11-20T06:49:23;20.02;;;4.93;;
67798;SDS011;54596;43.216;27.904;2022-11-20T06:51:50;18.92;;;5.05;;
67798;SDS011;54596;43.216;27.904;2022-11-20T06:54:15;25.83;;;7.53;;
67798;SDS011;54596;43.216;27.904;2022-11-20T06:56:41;27.02;;;7.60;;
67798;SDS011;54596;43.216;27.904;2022-11-20T06:59:06;23.17;;;6.90;;
67798;SDS011;54596;43.216;27.904;2022-11-20T07:01:32;21.27;;;5.97;;
67798;SDS011;54596;43.216;27.904;2022-11-20T07:03:58;27.10;;;5.93;;
67798;SDS011;54596;43.216;27.904;2022-11-20T07:06:23;24.58;;;6.28;;
67798;SDS011;54596;43.216;27.904;2022-11-20T07:08:50;21.95;;;6.63;;
67798;SDS011;54596;43.216;27.904;2022-11-20T07:11:17;23.20;;;7.03;;
67798;SDS011;54596;43.216;27.904;2022-11-20T07:13:42;28.48;;;9.50;;
67798;SDS011;54596;43.216;27.904;2022-11-20T07:16:08;24.15;;;7.50;;
67798;SDS011;54596;43.216;27.904;2022-11-20T07:18:34;28.40;;;7.60;;
67798;SDS011;54596;43.216;27.904;2022-11-20T07:21:03;23.08;;;6.95;;
67798;SDS011;54596;43.216;27.904;2022-11-20T07:23:30;31.73;;;10.57;;
67798;SDS011;54596;43.216;27.904;2022-11-20T07:25:56;26.55;;;7.03;;
67798;SDS011;54596;43.216;27.904;2022-11-20T07:28:21;23.00;;;5.60;;
67798;SDS011;54596;43.216;27.904;2022-11-20T07:30:51;24.67;;;5.80;;
67798;SDS011;54596;43.216;27.904;2022-11-20T07:33:17;21.90;;;5.32;;
67798;SDS011;54596;43.216;27.904;2022-11-20T07:35:43;21.50;;;5.10;;
67798;SDS011;54596;43.216;27.904;2022-11-20T07:38:09;21.75;;;4.80;;
67798;SDS011;54596;43.216;27.904;2022-11-20T07:40:34;17.83;;;4.63;;
67798;SDS011;54596;43.216;27.904;2022-11-20T07:42:59;19.25;;;4.60;;
67798;SDS011;54596;43.216;27.904;2022-11-20T07:45:25;20.73;;;4.60;;
67798;SDS011;54596;43.216;27.904;2022-11-20T07:47:50;21.30;;;5.47;;
67798;SDS011;54596;43.216;27.904;2022-11-20T07:50:16;19.70;;;4.95;;
67798;SDS011;54596;43.216;27.904;2022-11-20T07:52:42;18.20;;;4.60;;
67798;SDS011;54596;43.216;27.904;2022-11-20T07:55:08;22.38;;;5.85;;
67798;SDS011;54596;43.216;27.904;2022-11-20T07:57:34;22.75;;;6.05;;
67798;SDS011;54596;43.216;27.904;2022-11-20T07:59:59;20.52;;;5.32;;
67798;SDS011;54596;43.216;27.904;2022-11-20T08:02:26;21.35;;;5.22;;
67798;SDS011;54596;43.216;27.904;2022-11-20T08:04:52;20.33;;;5.38;;
67798;SDS011;54596;43.216;27.904;2022-11-20T08:07:17;18.20;;;5.25;;
67798;SDS011;54596;43.216;27.904;2022-11-20T08:09:43;22.00;;;5.20;;
67798;SDS011;54596;43.216;27.904;2022-11-20T08:12:09;27.13;;;8.20;;
67798;SDS011;54596;43.216;27.904;2022-11-20T08:15:21;20.50;;;5.38;;
67798;SDS011;54596;43.216;27.904;2022-11-20T08:17:46;20.40;;;5.30;;
67798;SDS011;54596;43.216;27.904;2022-11-20T08:20:12;24.05;;;5.40;;
67798;SDS011;54596;43.216;27.904;2022-11-20T08:22:38;22.92;;;6.05;;
67798;SDS011;54596;43.216;27.904;2022-11-20T08:25:03;19.05;;;5.93;;
67798;SDS011;54596;43.216;27.904;2022-11-20T08:27:31;23.05;;;6.10;;
67798;SDS011;54596;43.216;27.904;2022-11-20T08:29:57;25.20;;;5.82;;
67798;SDS011;54596;43.216;27.904;2022-11-20T08:32:22;24.55;;;5.90;;
67798;SDS011;54596;43.216;27.904;2022-11-20T08:34:47;21.88;;;6.57;;
67798;SDS011;54596;43.216;27.904;2022-11-20T08:37:13;21.52;;;6.10;;
67798;SDS011;54596;43.216;27.904;2022-11-20T08:39:38;31.33;;;10.43;;
67798;SDS011;54596;43.216;27.904;2022-11-20T08:42:07;28.15;;;9.75;;
67798;SDS011;54596;43.216;27.904;2022-11-20T08:44:33;32.78;;;16.65;;
67798;SDS011;54596;43.216;27.904;2022-11-20T08:46:58;31.67;;;13.60;;
67798;SDS011;54596;43.216;27.904;2022-11-20T08:49:25;18.70;;;6.60;;
67798;SDS011;54596;43.216;27.904;2022-11-20T08:51:50;22.02;;;7.28;;
67798;SDS011;54596;43.216;27.904;2022-11-20T08:54:18;24.67;;;5.47;;
67798;SDS011;54596;43.216;27.904;2022-11-20T08:56:46;22.67;;;5.78;;
67798;SDS011;54596;43.216;27.904;2022-11-20T08:59:12;22.60;;;5.95;;
67798;SDS011;54596;43.216;27.904;2022-11-20T09:01:38;23.88;;;6.70;;
67798;SDS011;54596;43.216;27.904;2022-11-20T09:04:04;29.33;;;7.30;;
67798;SDS011;54596;43.216;27.904;2022-11-20T09:06:29;19.08;;;5.47;;
67798;SDS011;54596;43.216;27.904;2022-11-20T09:08:55;24.52;;;5.40;;
67798;SDS011;54596;43.216;27.904;2022-11-20T09:11:21;23.55;;;5.50;;
67798;SDS011;54596;43.216;27.904;2022-11-20T09:13:47;20.00;;;6.00;;
67798;SDS011;54596;43.216;27.904;2022-11-20T09:16:13;22.02;;;6.28;;
67798;SDS011;54596;43.216;27.904;2022-11-20T09:18:38;18.95;;;5.88;;
67798;SDS011;54596;43.216;27.904;2022-11-20T09:21:05;19.30;;;5.32;;
67798;SDS011;54596;43.216;27.904;2022-11-20T09:23:35;23.50;;;6.47;;
67798;SDS011;54596;43.216;27.904;2022-11-20T09:26:04;23.05;;;7.82;;
67798;SDS011;54596;43.216;27.904;2022-11-20T09:28:38;23.65;;;6.05;;
67798;SDS011;54596;43.216;27.904;2022-11-20T09:34:01;21.40;;;5.80;;
67798;SDS011;54596;43.216;27.904;2022-11-20T09:36:27;22.30;;;6.50;;
67798;SDS011;54596;43.216;27.904;2022-11-20T09:38:53;24.42;;;5.75;;
67798;SDS011;54596;43.216;27.904;2022-11-20T09:54:55;24.33;;;10.75;;
67798;SDS011;54596;43.216;27.904;2022-11-20T09:57:23;27.02;;;8.65;;
67798;SDS011;54596;43.216;27.904;2022-11-20T09:59:56;21.50;;;7.50;;
67798;SDS011;54596;43.216;27.904;2022-11-20T10:10:42;29.40;;;6.95;;
67798;SDS011;54596;43.216;27.904;2022-11-20T10:13:19;24.15;;;6.65;;
67798;SDS011;54596;43.216;27.904;2022-11-20T10:27:42;23.77;;;6.40;;
67798;SDS011;54596;43.216;27.904;2022-11-20T10:29:58;24.95;;;7.50;;
67798;SDS011;54596;43.216;27.904;2022-11-20T10:32:27;25.60;;;6.20;;
67798;SDS011;54596;43.216;27.904;2022-11-20T10:35:21;25.23;;;6.90;;
67798;SDS011;54596;43.216;27.904;2022-11-20T10:37:47;26.17;;;6.30;;
67798;SDS011;54596;43.216;27.904;2022-11-20T10:40:23;27.63;;;6.45;;
67798;SDS011;54596;43.216;27.904;2022-11-20T10:42:57;30.15;;;6.47;;
67798;SDS011;54596;43.216;27.904;2022-11-20T10:47:49;24.90;;;6.60;;
67798;SDS011;54596;43.216;27.904;2022-11-20T10:50:19;26.15;;;6.65;;
67798;SDS011;54596;43.216;27.904;2022-11-20T10:53:02;21.85;;;7.05;;
67798;SDS011;54596;43.216;27.904;2022-11-20T10:55:52;23.08;;;6.82;;
67798;SDS011;54596;43.216;27.904;2022-11-20T11:01:02;33.15;;;13.00;;
67798;SDS011;54596;43.216;27.904;2022-11-20T11:03:38;27.48;;;7.85;;
67798;SDS011;54596;43.216;27.904;2022-11-20T11:08:37;21.95;;;6.47;;
67798;SDS011;54596;43.216;27.904;2022-11-20T11:11:18;29.23;;;6.60;;
67798;SDS011;54596;43.216;27.904;2022-11-20T11:13:49;29.80;;;7.43;;
67798;SDS011;54596;43.216;27.904;2022-11-20T11:16:25;28.05;;;8.38;;
67798;SDS011;54596;43.216;27.904;2022-11-20T11:18:51;22.05;;;6.32;;
67798;SDS011;54596;43.216;27.904;2022-11-20T11:21:28;26.58;;;6.60;;
67798;SDS011;54596;43.216;27.904;2022-11-20T11:24:00;27.08;;;6.60;;
67798;SDS011;54596;43.216;27.904;2022-11-20T11:26:29;25.95;;;6.90;;
67798;SDS011;54596;43.216;27.904;2022-11-20T11:31:24;27.25;;;6.70;;
67798;SDS011;54596;43.216;27.904;2022-11-20T11:33:51;24.08;;;6.88;;
67798;SDS011;54596;43.216;27.904;2022-11-20T11:36:22;23.02;;;6.30;;
67798;SDS011;54596;43.216;27.904;2022-11-20T11:38:50;24.40;;;6.65;;
67798;SDS011;54596;43.216;27.904;2022-11-20T11:41:22;25.45;;;7.22;;
67798;SDS011;54596;43.216;27.904;2022-11-20T11:43:57;23.40;;;7.35;;
67798;SDS011;54596;43.216;27.904;2022-11-20T11:46:59;22.60;;;6.78;;
67798;SDS011;54596;43.216;27.904;2022-11-20T11:49:25;25.92;;;6.70;;
67798;SDS011;54596;43.216;27.904;2022-11-20T11:54:37;24.20;;;5.72;;
67798;SDS011;54596;43.216;27.904;2022-11-20T11:57:16;27.80;;;6.40;;
67798;SDS011;54596;43.216;27.904;2022-11-20T12:02:39;25.92;;;6.28;;
67798;SDS011;54596;43.216;27.904;2022-11-20T12:05:30;28.15;;;7.50;;
67798;SDS011;54596;43.216;27.904;2022-11-20T12:16:30;31.45;;;7.38;;
67798;SDS011;54596;43.216;27.904;2022-11-20T12:19:00;27.90;;;6.70;;
67798;SDS011;54596;43.216;27.904;2022-11-20T12:21:42;35.45;;;6.57;;
67798;SDS011;54596;43.216;27.904;2022-11-20T12:24:35;26.02;;;5.72;;
67798;SDS011;54596;43.216;27.904;2022-11-20T12:27:05;27.48;;;6.70;;
67798;SDS011;54596;43.216;27.904;2022-11-20T12:32:42;35.95;;;7.43;;
67798;SDS011;54596;43.216;27.904;2022-11-20T12:58:12;33.78;;;9.05;;
67798;SDS011;54596;43.216;27.904;2022-11-20T13:00:47;35.60;;;9.15;;
67798;SDS011;54596;43.216;27.904;2022-11-20T13:06:16;33.47;;;7.47;;
67798;SDS011;54596;43.216;27.904;2022-11-20T13:08:53;35.28;;;9.48;;
67798;SDS011;54596;43.216;27.904;2022-11-20T13:11:24;30.85;;;7.28;;
67798;SDS011;54596;43.216;27.904;2022-11-20T13:19:38;34.30;;;7.88;;
67798;SDS011;54596;43.216;27.904;2022-11-20T13:22:04;39.67;;;10.57;;
67798;SDS011;54596;43.216;27.904;2022-11-20T13:24:30;36.92;;;13.82;;
67798;SDS011;54596;43.216;27.904;2022-11-20T13:27:00;38.35;;;11.95;;
67798;SDS011;54596;43.216;27.904;2022-11-20T13:29:39;39.67;;;12.10;;
67798;SDS011;54596;43.216;27.904;2022-11-20T13:32:18;36.13;;;11.35;;
67798;SDS011;54596;43.216;27.904;2022-11-20T13:37:30;38.85;;;7.65;;
67798;SDS011;54596;43.216;27.904;2022-11-20T13:42:33;34.30;;;9.20;;
67798;SDS011;54596;43.216;27.904;2022-11-20T13:45:08;38.85;;;10.30;;
67798;SDS011;54596;43.216;27.904;2022-11-20T13:47:35;45.65;;;11.15;;
67798;SDS011;54596;43.216;27.904;2022-11-20T13:50:02;39.08;;;11.27;;
67798;SDS011;54596;43.216;27.904;2022-11-20T14:00:58;34.80;;;7.10;;
67798;SDS011;54596;43.216;27.904;2022-11-20T14:03:35;40.35;;;8.98;;
67798;SDS011;54596;43.216;27.904;2022-11-20T14:06:04;36.83;;;7.90;;
67798;SDS011;54596;43.216;27.904;2022-11-20T14:13:39;37.40;;;8.43;;
67798;SDS011;54596;43.216;27.904;2022-11-20T14:16:05;32.85;;;8.52;;
67798;SDS011;54596;43.216;27.904;2022-11-20T14:18:30;40.20;;;9.57;;
67798;SDS011;54596;43.216;27.904;2022-11-20T14:20:56;42.35;;;9.65;;
67798;SDS011;54596;43.216;27.904;2022-11-20T14:23:29;41.90;;;9.13;;
67798;SDS011;54596;43.216;27.904;2022-11-20T14:25:54;34.78;;;7.93;;
67798;SDS011;54596;43.216;27.904;2022-11-20T14:28:27;35.65;;;8.38;;
67798;SDS011;54596;43.216;27.904;2022-11-20T14:30:55;38.75;;;8.60;;
67798;SDS011;54596;43.216;27.904;2022-11-20T14:33:21;39.30;;;9.20;;
67798;SDS011;54596;43.216;27.904;2022-11-20T14:35:53;37.97;;;9.80;;
67798;SDS011;54596;43.216;27.904;2022-11-20T14:38:29;41.65;;;12.30;;
67798;SDS011;54596;43.216;27.904;2022-11-20T14:41:16;36.25;;;9.30;;
67798;SDS011;54596;43.216;27.904;2022-11-20T14:43:47;42.47;;;15.05;;
67798;SDS011;54596;43.216;27.904;2022-11-20T14:46:18;46.75;;;15.85;;
67798;SDS011;54596;43.216;27.904;2022-11-20T14:48:47;39.90;;;9.73;;
67798;SDS011;54596;43.216;27.904;2022-11-20T14:54:16;34.83;;;9.75;;
67798;SDS011;54596;43.216;27.904;2022-11-20T14:56:56;50.33;;;12.52;;
67798;SDS011;54596;43.216;27.904;2022-11-20T14:59:27;39.17;;;9.57;;
67798;SDS011;54596;43.216;27.904;2022-11-20T15:04:48;37.42;;;10.07;;
67798;SDS011;54596;43.216;27.904;2022-11-20T15:07:29;41.97;;;9.50;;
67798;SDS011;54596;43.216;27.904;2022-11-20T15:12:29;46.70;;;8.80;;
67798;SDS011;54596;43.216;27.904;2022-11-20T15:14:56;37.22;;;8.82;;
67798;SDS011;54596;43.216;27.904;2022-11-20T15:17:22;46.30;;;10.02;;
67798;SDS011;54596;43.216;27.904;2022-11-20T15:19:48;43.55;;;10.57;;
67798;SDS011;54596;43.216;27.904;2022-11-20T15:22:13;36.38;;;9.60;;
67798;SDS011;54596;43.216;27.904;2022-11-20T15:24:41;38.38;;;9.50;;
67798;SDS011;54596;43.216;27.904;2022-11-20T15:27:07;41.03;;;12.45;;
67798;SDS011;54596;43.216;27.904;2022-11-20T15:29:34;40.55;;;9.80;;
67798;SDS011;54596;43.216;27.904;2022-11-20T15:31:59;40.70;;;9.57;;
67798;SDS011;54596;43.216;27.904;2022-11-20T15:34:26;43.70;;;9.52;;
67798;SDS011;54596;43.216;27.904;2022-11-20T15:36:52;42.75;;;9.85;;
67798;SDS011;54596;43.216;27.904;2022-11-20T15:39:19;36.65;;;9.43;;
67798;SDS011;54596;43.216;27.904;2022-11-20T15:41:45;40.88;;;9.40;;
67798;SDS011;54596;43.216;27.904;2022-11-20T15:44:11;38.80;;;9.23;;
67798;SDS011;54596;43.216;27.904;2022-11-20T15:46:37;41.00;;;9.98;;
67798;SDS011;54596;43.216;27.904;2022-11-20T15:49:10;42.85;;;9.85;;
67798;SDS011;54596;43.216;27.904;2022-11-20T15:51:43;39.78;;;9.75;;
67798;SDS011;54596;43.216;27.904;2022-11-20T15:56:39;43.55;;;10.77;;
67798;SDS011;54596;43.216;27.904;2022-11-20T15:59:05;48.25;;;13.45;;
67798;SDS011;54596;43.216;27.904;2022-11-20T16:01:30;64.30;;;18.52;;
67798;SDS011;54596;43.216;27.904;2022-11-20T16:03:56;48.35;;;12.05;;
67798;SDS011;54596;43.216;27.904;2022-11-20T16:06:21;42.95;;;11.02;;
67798;SDS011;54596;43.216;27.904;2022-11-20T16:08:47;40.47;;;11.35;;
67798;SDS011;54596;43.216;27.904;2022-11-20T16:11:13;43.53;;;10.57;;
67798;SDS011;54596;43.216;27.904;2022-11-20T16:13:40;47.95;;;11.00;;
67798;SDS011;54596;43.216;27.904;2022-11-20T16:16:25;44.05;;;11.95;;
67798;SDS011;54596;43.216;27.904;2022-11-20T16:18:55;50.45;;;11.48;;
67798;SDS011;54596;43.216;27.904;2022-11-20T16:21:21;45.30;;;11.90;;
67798;SDS011;54596;43.216;27.904;2022-11-20T16:23:59;46.35;;;14.43;;
67798;SDS011;54596;43.216;27.904;2022-11-20T16:26:26;43.97;;;15.30;;
67798;SDS011;54596;43.216;27.904;2022-11-20T16:28:52;58.42;;;17.40;;
67798;SDS011;54596;43.216;27.904;2022-11-20T16:31:19;60.33;;;20.40;;
67798;SDS011;54596;43.216;27.904;2022-11-20T16:33:55;55.85;;;18.10;;
67798;SDS011;54596;43.216;27.904;2022-11-20T16:36:23;51.25;;;16.58;;
67798;SDS011;54596;43.216;27.904;2022-11-20T16:38:53;59.22;;;18.83;;
67798;SDS011;54596;43.216;27.904;2022-11-20T16:41:21;55.78;;;16.67;;
67798;SDS011;54596;43.216;27.904;2022-11-20T16:43:51;59.10;;;16.30;;
67798;SDS011;54596;43.216;27.904;2022-11-20T16:46:18;58.83;;;18.60;;